Time,TemperatureF,DewpointF,PressureIn,WindDirection,WindDirectionDegrees,WindSpeedMPH,WindSpeedGustMPH,Humidity,HourlyPrecipIn,Conditions,Clouds,dailyrainin,SoftwareType,DateUTC
2013-01-24 00:00:00,8.9,2.3,30.19,WNW,302,0.0,0.0,74,0.00,CLR,,0.00,WeatherDisplay:10.37,2013-01-24 05:00:00,
2013-01-24 00:03:00,8.9,2.3,30.19,WNW,302,0.0,0.0,74,0.00,CLR,,0.00,WeatherDisplay:10.37,2013-01-24 05:03:00,
2013-01-24 00:08:00,8.7,2.4,30.19,WNW,302,0.0,0.0,75,0.00,CLR,,0.00,WeatherDisplay:10.37,2013-01-24 05:08:00,
2013-01-24 00:13:00,8.6,2.3,30.18,WNW,302,0.0,0.0,75,0.00,CLR,,0.00,WeatherDisplay:10.37,2013-01-24 05:13:00,
2013-01-24 00:18:00,8.6,2.6,30.18,WNW,302,0.0,0.0,76,0.00,CLR,,0.00,WeatherDisplay:10.37,2013-01-24 05:18:00,
2013-01-24 00:23:00,8.4,2.4,30.18,WNW,302,0.0,0.0,76,0.00,CLR,,0.00,WeatherDisplay:10.37,2013-01-24 05:23:00,
2013-01-24 00:28:00,8.3,2.3,30.18,WNW,302,0.0,0.0,76,0.00,CLR,,0.00,WeatherDisplay:10.37,2013-01-24 05:28:00,
2013-01-24 00:33:00,8.2,2.2,30.18,WNW,302,0.0,0.0,76,0.00,CLR,,0.00,WeatherDisplay:10.37,2013-01-24 05:33:00,
2013-01-24 00:38:00,8.2,2.5,30.18,WNW,302,0.0,0.0,77,0.00,CLR,,0.00,WeatherDisplay:10.37,2013-01-24 05:38:00,
2013-01-24 00:43:00,8.1,2.4,30.18,WNW,302,0.0,0.0,77,0.00,CLR,,0.00,WeatherDisplay:10.37,2013-01-24 05:43:00,
2013-01-24 00:48:00,8.0,2.3,30.18,WNW,302,0.0,0.0,77,0.00,CLR,,0.00,WeatherDisplay:10.37,2013-01-24 05:48:00,
2013-01-24 00:53:00,7.8,2.1,30.17,WNW,302,1.1,0.0,77,0.00,CLR,,0.00,WeatherDisplay:10.37,2013-01-24 05:53:00,
2013-01-24 00:58:00,7.7,2.0,30.17,WNW,302,0.0,0.0,77,0.00,CLR,,0.00,WeatherDisplay:10.37,2013-01-24 05:58:00,
2013-01-24 01:03:00,7.6,2.2,30.17,WNW,302,0.0,0.0,78,0.00,CLR,,0.00,WeatherDisplay:10.37,2013-01-24 06:03:00,
2013-01-24 01:08:00,7.5,2.1,30.17,WNW,302,0.0,0.0,78,0.00,CLR,,0.00,WeatherDisplay:10.37,2013-01-24 06:08:00,
2013-01-24 01:13:00,7.4,2.3,30.17,WNW,302,0.0,0.0,79,0.00,CLR,,0.00,WeatherDisplay:10.37,2013-01-24 06:13:00,
2013-01-24 01:18:00,7.4,2.3,30.17,WNW,302,0.0,0.0,79,0.00,CLR,,0.00,WeatherDisplay:10.37,2013-01-24 06:18:00,
2013-01-24 01:23:00,7.3,2.2,30.17,WNW,302,0.0,0.0,79,0.00,CLR,,0.00,WeatherDisplay:10.37,2013-01-24 06:23:00,
2013-01-24 01:28:00,7.3,2.4,30.16,WNW,302,0.0,0.0,80,0.00,CLR,,0.00,WeatherDisplay:10.37,2013-01-24 06:28:00,
2013-01-24 01:33:00,7.2,2.3,30.17,WNW,302,0.0,0.0,80,0.00,CLR,,0.00,WeatherDisplay:10.37,2013-01-24 06:33:00,
2013-01-24 01:38:00,7.3,2.4,30.17,WNW,302,0.0,0.0,80,0.00,CLR,,0.00,WeatherDisplay:10.37,2013-01-24 06:38:00,
2013-01-24 01:43:00,7.2,2.3,30.16,WNW,302,0.0,0.0,80,0.00,CLR,,0.00,WeatherDisplay:10.37,2013-01-24 06:43:00,
2013-01-24 01:48:00,7.1,2.5,30.17,WNW,302,0.0,0.0,81,0.00,CLR,,0.00,WeatherDisplay:10.37,2013-01-24 06:48:00,
2013-01-24 01:53:00,7.1,2.5,30.16,WNW,302,0.0,0.0,81,0.00,CLR,,0.00,WeatherDisplay:10.37,2013-01-24 06:53:00,
2013-01-24 01:58:00,7.0,2.7,30.16,WNW,302,0.0,0.0,82,0.00,CLR,,0.00,WeatherDisplay:10.37,2013-01-24 06:58:00,
2013-01-24 02:03:00,6.9,2.6,30.16,WNW,302,0.0,0.0,82,0.00,CLR,,0.00,WeatherDisplay:10.37,2013-01-24 07:03:00,
2013-01-24 02:08:00,6.8,2.5,30.16,WNW,302,0.0,0.0,82,0.00,CLR,,0.00,WeatherDisplay:10.37,2013-01-24 07:08:00,
2013-01-24 02:13:00,6.7,2.4,30.16,WNW,302,0.0,0.0,82,0.00,CLR,,0.00,WeatherDisplay:10.37,2013-01-24 07:13:00,
2013-01-24 02:18:00,6.7,2.4,30.16,WNW,302,0.0,0.0,82,0.00,CLR,,0.00,WeatherDisplay:10.37,2013-01-24 07:18:00,
2013-01-24 02:23:00,6.6,2.3,30.16,WNW,302,0.0,0.0,82,0.00,CLR,,0.00,WeatherDisplay:10.37,2013-01-24 07:23:00,
2013-01-24 02:28:00,6.5,2.4,30.16,WNW,302,0.0,0.0,83,0.00,CLR,,0.00,WeatherDisplay:10.37,2013-01-24 07:28:00,
2013-01-24 02:33:00,6.4,2.1,30.15,WNW,302,0.0,0.0,82,0.00,CLR,,0.00,WeatherDisplay:10.37,2013-01-24 07:33:00,
2013-01-24 02:38:00,6.4,2.3,30.15,WNW,302,0.0,0.0,83,0.00,CLR,,0.00,WeatherDisplay:10.37,2013-01-24 07:38:00,
2013-01-24 02:43:00,6.3,2.2,30.15,WNW,302,0.0,0.0,83,0.00,CLR,,0.00,WeatherDisplay:10.37,2013-01-24 07:43:00,
2013-01-24 02:48:00,6.2,2.1,30.15,WNW,302,0.0,0.0,83,0.00,CLR,,0.00,WeatherDisplay:10.37,2013-01-24 07:48:00,
2013-01-24 02:53:00,6.1,2.0,30.15,WNW,302,0.0,0.0,83,0.00,CLR,,0.00,WeatherDisplay:10.37,2013-01-24 07:53:00,
2013-01-24 02:58:00,6.1,2.0,30.15,WNW,302,0.0,0.0,83,0.00,CLR,,0.00,WeatherDisplay:10.37,2013-01-24 07:58:00,
2013-01-24 03:03:00,6.0,1.9,30.15,WNW,302,0.0,0.0,83,0.00,CLR,,0.00,WeatherDisplay:10.37,2013-01-24 08:03:00,
2013-01-24 03:08:00,5.9,2.1,30.15,WNW,302,0.0,0.0,84,0.00,CLR,,0.00,WeatherDisplay:10.37,2013-01-24 08:08:00,
2013-01-24 03:13:00,5.9,2.1,30.14,WNW,302,0.0,0.0,84,0.00,CLR,,0.00,WeatherDisplay:10.37,2013-01-24 08:13:00,
2013-01-24 03:18:00,6.0,2.2,30.14,WNW,302,0.0,0.0,84,0.00,CLR,,0.00,WeatherDisplay:10.37,2013-01-24 08:18:00,
2013-01-24 03:23:00,6.0,2.2,30.14,WNW,302,0.0,0.0,84,0.00,CLR,,0.00,WeatherDisplay:10.37,2013-01-24 08:23:00,
2013-01-24 03:28:00,6.1,2.3,30.15,WNW,302,0.0,0.0,84,0.00,CLR,,0.00,WeatherDisplay:10.37,2013-01-24 08:28:00,
2013-01-24 03:33:00,6.3,2.8,30.15,WNW,302,0.0,0.0,85,0.00,CLR,,0.00,WeatherDisplay:10.37,2013-01-24 08:33:00,
2013-01-24 03:38:00,6.5,3.0,30.15,WNW,302,0.0,0.0,85,0.00,CLR,,0.00,WeatherDisplay:10.37,2013-01-24 08:38:00,
2013-01-24 03:43:00,6.5,3.0,30.15,WNW,302,1.1,0.0,85,0.00,CLR,,0.00,WeatherDisplay:10.37,2013-01-24 08:43:00,
2013-01-24 03:48:00,6.7,2.9,30.15,WNW,302,0.0,0.0,84,0.00,CLR,,0.00,WeatherDisplay:10.37,2013-01-24 08:48:00,
2013-01-24 03:53:00,6.8,3.0,30.15,WNW,302,0.0,0.0,84,0.00,CLR,,0.00,WeatherDisplay:10.37,2013-01-24 08:53:00,
2013-01-24 03:58:00,6.9,3.1,30.15,WNW,302,0.0,0.0,84,0.00,CLR,,0.00,WeatherDisplay:10.37,2013-01-24 08:58:00,
2013-01-24 04:03:00,6.9,3.1,30.15,WNW,302,0.0,0.0,84,0.00,SCT,,0.00,WeatherDisplay:10.37,2013-01-24 09:03:00,
2013-01-24 04:08:00,6.9,2.8,30.15,WNW,302,0.0,0.0,83,0.00,SCT,,0.00,WeatherDisplay:10.37,2013-01-24 09:08:00,
2013-01-24 04:13:00,6.8,2.7,30.15,WNW,302,1.1,1.1,83,0.00,SCT,,0.00,WeatherDisplay:10.37,2013-01-24 09:13:00,
2013-01-24 04:18:00,6.8,2.7,30.15,WNW,302,0.0,0.0,83,0.00,SCT,,0.00,WeatherDisplay:10.37,2013-01-24 09:18:00,
2013-01-24 04:23:00,6.8,2.7,30.15,WNW,302,0.0,0.0,83,0.00,SCT,,0.00,WeatherDisplay:10.37,2013-01-24 09:23:00,
2013-01-24 04:28:00,6.9,2.8,30.15,WNW,302,2.3,2.3,83,0.00,SCT,,0.00,WeatherDisplay:10.37,2013-01-24 09:28:00,
2013-01-24 04:33:00,6.9,2.8,30.15,WNW,302,0.0,0.0,83,0.00,SCT,,0.00,WeatherDisplay:10.37,2013-01-24 09:33:00,
2013-01-24 04:38:00,6.9,2.6,30.16,NW,306,0.0,0.0,82,0.00,SCT,,0.00,WeatherDisplay:10.37,2013-01-24 09:38:00,
2013-01-24 04:43:00,7.0,2.7,30.16,NW,306,0.0,0.0,82,0.00,SCT,,0.00,WeatherDisplay:10.37,2013-01-24 09:43:00,
2013-01-24 04:48:00,7.0,2.7,30.16,NW,306,0.0,0.0,82,0.00,SCT,,0.00,WeatherDisplay:10.37,2013-01-24 09:48:00,
2013-01-24 04:53:00,7.1,2.8,30.16,NW,306,0.0,0.0,82,0.00,SCT,,0.00,WeatherDisplay:10.37,2013-01-24 09:53:00,
2013-01-24 04:58:00,7.1,2.8,30.16,NW,306,0.0,0.0,82,0.00,SCT,,0.00,WeatherDisplay:10.37,2013-01-24 09:58:00,
2013-01-24 05:03:00,7.1,2.8,30.16,NW,306,0.0,0.0,82,0.00,OVC,,0.00,WeatherDisplay:10.37,2013-01-24 10:03:00,
2013-01-24 05:08:00,7.1,2.8,30.16,NW,306,1.1,1.1,82,0.00,OVC,,0.00,WeatherDisplay:10.37,2013-01-24 10:08:00,
2013-01-24 05:13:00,7.1,2.8,30.16,NW,306,0.0,0.0,82,0.00,OVC,,0.00,WeatherDisplay:10.37,2013-01-24 10:13:00,
2013-01-24 05:18:00,7.1,2.8,30.16,NW,306,2.3,2.3,82,0.00,OVC,,0.00,WeatherDisplay:10.37,2013-01-24 10:18:00,
2013-01-24 05:23:00,7.2,2.6,30.16,NW,306,2.0,2.0,81,0.00,OVC,,0.00,WeatherDisplay:10.37,2013-01-24 10:23:00,
2013-01-24 05:28:00,7.2,2.6,30.16,NW,306,2.3,0.0,81,0.00,OVC,,0.00,WeatherDisplay:10.37,2013-01-24 10:28:00,
2013-01-24 05:33:00,7.3,2.4,30.16,NW,306,2.3,2.3,80,0.00,OVC,,0.00,WeatherDisplay:10.37,2013-01-24 10:33:00,
2013-01-24 05:38:00,7.3,2.4,30.17,NW,306,1.1,1.1,80,0.00,OVC,,0.00,WeatherDisplay:10.37,2013-01-24 10:38:00,
2013-01-24 05:43:00,7.3,2.4,30.17,NW,306,2.3,2.3,80,0.00,OVC,,0.00,WeatherDisplay:10.37,2013-01-24 10:43:00,
2013-01-24 05:48:00,7.2,2.3,30.17,NW,306,1.1,1.1,80,0.00,OVC,,0.00,WeatherDisplay:10.37,2013-01-24 10:48:00,
2013-01-24 05:53:00,7.2,2.3,30.17,NW,306,2.0,2.0,80,0.00,OVC,,0.00,WeatherDisplay:10.37,2013-01-24 10:53:00,
2013-01-24 05:58:00,7.1,2.2,30.17,NW,306,2.3,2.3,80,0.00,OVC,,0.00,WeatherDisplay:10.37,2013-01-24 10:58:00,
2013-01-24 06:03:00,7.0,2.1,30.18,NW,306,2.0,2.0,80,0.00,SCT,,0.00,WeatherDisplay:10.37,2013-01-24 11:03:00,
2013-01-24 06:08:00,6.9,1.8,30.18,NW,306,0.0,0.0,79,0.00,SCT,,0.00,WeatherDisplay:10.37,2013-01-24 11:08:00,
2013-01-24 06:13:00,6.9,1.8,30.18,NW,306,2.3,2.3,79,0.00,SCT,,0.00,WeatherDisplay:10.37,2013-01-24 11:13:00,
2013-01-24 06:18:00,6.8,1.7,30.18,NW,306,2.0,2.0,79,0.00,SCT,,0.00,WeatherDisplay:10.37,2013-01-24 11:18:00,
2013-01-24 06:23:00,6.8,1.7,30.18,NW,306,3.5,3.5,79,0.00,SCT,,0.00,WeatherDisplay:10.37,2013-01-24 11:23:00,
2013-01-24 06:28:00,6.7,1.6,30.19,NW,306,3.5,0.0,79,0.00,SCT,,0.00,WeatherDisplay:10.37,2013-01-24 11:28:00,
2013-01-24 06:33:00,6.7,1.6,30.19,NW,306,1.1,1.1,79,0.00,SCT,,0.00,WeatherDisplay:10.37,2013-01-24 11:33:00,
2013-01-24 06:38:00,6.6,1.5,30.19,NW,306,2.3,2.3,79,0.00,SCT,,0.00,WeatherDisplay:10.37,2013-01-24 11:38:00,
2013-01-24 06:43:00,6.5,1.4,30.19,NW,306,2.3,0.0,79,0.00,SCT,,0.00,WeatherDisplay:10.37,2013-01-24 11:43:00,
2013-01-24 06:48:00,6.5,1.4,30.19,NW,306,1.1,0.0,79,0.00,SCT,,0.00,WeatherDisplay:10.37,2013-01-24 11:48:00,
2013-01-24 06:53:00,6.5,1.6,30.19,NW,306,0.0,0.3,80,0.00,SCT,,0.00,WeatherDisplay:10.37,2013-01-24 11:53:00,
2013-01-24 06:58:00,6.4,1.5,30.19,NW,306,1.0,1.0,80,0.00,SCT,,0.00,WeatherDisplay:10.37,2013-01-24 11:58:00,
2013-01-24 07:03:00,6.4,1.3,30.19,NW,306,2.3,2.3,79,0.00,CLR,,0.00,WeatherDisplay:10.37,2013-01-24 12:03:00,
2013-01-24 07:08:00,6.5,1.4,30.19,NW,306,1.1,0.0,79,0.00,CLR,,0.00,WeatherDisplay:10.37,2013-01-24 12:08:00,
2013-01-24 07:13:00,6.5,1.4,30.20,NW,306,0.0,0.0,79,0.00,CLR,,0.00,WeatherDisplay:10.37,2013-01-24 12:13:00,
2013-01-24 07:18:00,6.5,1.1,30.20,North,5,3.5,3.5,78,0.00,CLR,,0.00,WeatherDisplay:10.37,2013-01-24 12:18:00,
2013-01-24 07:23:00,6.5,1.1,30.20,North,5,3.5,3.5,78,0.00,CLR,,0.00,WeatherDisplay:10.37,2013-01-24 12:23:00,
2013-01-24 07:28:00,6.7,1.0,30.20,NNE,13,4.6,4.6,77,0.00,CLR,,0.00,WeatherDisplay:10.37,2013-01-24 12:28:00,
2013-01-24 07:33:00,6.8,1.1,30.20,NW,321,4.6,4.6,77,0.00,CLR,,0.00,WeatherDisplay:10.37,2013-01-24 12:33:00,
2013-01-24 07:38:00,6.9,1.2,30.21,North,355,0.0,0.7,77,0.00,CLR,,0.00,WeatherDisplay:10.37,2013-01-24 12:38:00,
2013-01-24 07:43:00,7.1,1.1,30.20,North,350,2.3,2.3,76,0.00,CLR,,0.00,WeatherDisplay:10.37,2013-01-24 12:43:00,
2013-01-24 07:48:00,7.2,1.2,30.21,North,355,2.3,2.3,76,0.00,CLR,,0.00,WeatherDisplay:10.37,2013-01-24 12:48:00,
2013-01-24 07:53:00,7.3,1.0,30.21,North,5,3.5,3.5,75,0.00,CLR,,0.00,WeatherDisplay:10.37,2013-01-24 12:53:00,
2013-01-24 07:58:00,7.6,1.3,30.21,NW,304,2.3,2.3,75,0.00,CLR,,0.00,WeatherDisplay:10.37,2013-01-24 12:58:00,
2013-01-24 08:03:00,7.8,1.5,30.21,NW,317,3.5,0.0,75,0.00,CLR,,0.00,WeatherDisplay:10.37,2013-01-24 13:03:00,
2013-01-24 08:08:00,8.0,1.4,30.22,NW,323,3.5,3.5,74,0.00,CLR,,0.00,WeatherDisplay:10.37,2013-01-24 13:08:00,
2013-01-24 08:13:00,8.3,1.7,30.22,NNW,342,2.3,2.3,74,0.00,CLR,,0.00,WeatherDisplay:10.37,2013-01-24 13:13:00,
2013-01-24 08:18:00,8.6,1.7,30.22,North,5,3.5,3.5,73,0.00,CLR,,0.00,WeatherDisplay:10.37,2013-01-24 13:18:00,
2013-01-24 08:23:00,9.0,1.8,30.22,North,5,3.5,3.5,72,0.00,CLR,,0.00,WeatherDisplay:10.37,2013-01-24 13:23:00,
2013-01-24 08:28:00,9.1,1.6,30.22,NNW,327,3.5,3.5,71,0.00,CLR,,0.00,WeatherDisplay:10.37,2013-01-24 13:28:00,
2013-01-24 08:33:00,9.5,2.0,30.22,NW,317,6.9,6.9,71,0.00,CLR,,0.00,WeatherDisplay:10.37,2013-01-24 13:33:00,
2013-01-24 08:38:00,9.7,1.9,30.22,WNW,286,8.1,8.1,70,0.00,CLR,,0.00,WeatherDisplay:10.37,2013-01-24 13:38:00,
2013-01-24 08:43:00,9.7,1.2,30.22,NW,319,5.8,5.8,68,0.00,CLR,,0.00,WeatherDisplay:10.37,2013-01-24 13:43:00,
2013-01-24 08:48:00,9.9,1.4,30.22,North,355,6.0,6.0,68,0.00,CLR,,0.00,WeatherDisplay:10.37,2013-01-24 13:48:00,
2013-01-24 08:53:00,10.1,1.6,30.22,NNW,333,5.0,5.0,68,0.00,CLR,,0.00,WeatherDisplay:10.37,2013-01-24 13:53:00,
2013-01-24 08:58:00,10.3,1.8,30.22,North,350,2.3,2.4,68,0.00,CLR,,0.00,WeatherDisplay:10.37,2013-01-24 13:58:00,
2013-01-24 09:03:00,10.8,2.3,30.22,NNE,30,6.9,6.9,68,0.00,CLR,,0.00,WeatherDisplay:10.37,2013-01-24 14:03:00,
2013-01-24 09:08:00,11.0,2.2,30.23,NE,39,4.6,4.6,67,0.00,CLR,,0.00,WeatherDisplay:10.37,2013-01-24 14:08:00,
2013-01-24 09:13:00,11.2,2.4,30.23,NW,320,6.9,6.9,67,0.00,CLR,,0.00,WeatherDisplay:10.37,2013-01-24 14:13:00,
2013-01-24 09:18:00,11.4,2.6,30.23,North,11,3.5,3.5,67,0.00,CLR,,0.00,WeatherDisplay:10.37,2013-01-24 14:18:00,
2013-01-24 09:23:00,11.9,2.7,30.23,NNW,331,6.9,6.9,66,0.00,CLR,,0.00,WeatherDisplay:10.37,2013-01-24 14:23:00,
2013-01-24 09:28:00,12.5,3.3,30.23,NNE,28,5.8,5.8,66,0.00,CLR,,0.00,WeatherDisplay:10.37,2013-01-24 14:28:00,
2013-01-24 09:33:00,12.7,3.1,30.24,NW,317,8.1,8.1,65,0.00,CLR,,0.00,WeatherDisplay:10.37,2013-01-24 14:33:00,
2013-01-24 09:38:00,13.0,3.1,30.24,NW,325,6.9,6.9,64,0.00,CLR,,0.00,WeatherDisplay:10.37,2013-01-24 14:38:00,
2013-01-24 09:43:00,13.5,3.6,30.24,NW,306,5.8,5.8,64,0.00,CLR,,0.00,WeatherDisplay:10.37,2013-01-24 14:43:00,
2013-01-24 09:48:00,13.8,3.5,30.24,NW,311,8.1,8.1,63,0.00,CLR,,0.00,WeatherDisplay:10.37,2013-01-24 14:48:00,
2013-01-24 09:53:00,14.1,3.8,30.24,NNW,336,8.1,8.1,63,0.00,CLR,,0.00,WeatherDisplay:10.37,2013-01-24 14:53:00,
2013-01-24 09:58:00,14.0,3.4,30.24,NNE,21,10.4,10.4,62,0.00,CLR,,0.00,WeatherDisplay:10.37,2013-01-24 14:58:00,
2013-01-24 10:03:00,14.3,4.0,30.24,WNW,298,3.5,3.5,63,0.00,CLR,,0.00,WeatherDisplay:10.37,2013-01-24 15:03:00,
2013-01-24 10:08:00,14.5,3.8,30.24,WNW,291,11.5,11.5,62,0.00,CLR,,0.00,WeatherDisplay:10.37,2013-01-24 15:08:00,
2013-01-24 10:13:00,14.5,3.5,30.24,NNW,348,11.5,11.5,61,0.00,CLR,,0.00,WeatherDisplay:10.37,2013-01-24 15:13:00,
2013-01-24 10:18:00,14.7,4.0,30.25,NNW,345,5.8,5.8,62,0.00,CLR,,0.00,WeatherDisplay:10.37,2013-01-24 15:18:00,
2013-01-24 10:23:00,15.1,4.4,30.24,NW,323,6.0,6.0,62,0.00,CLR,,0.00,WeatherDisplay:10.37,2013-01-24 15:23:00,
2013-01-24 10:28:00,15.4,4.3,30.25,North,355,5.8,5.8,61,0.00,CLR,,0.00,WeatherDisplay:10.37,2013-01-24 15:28:00,
2013-01-24 10:33:00,15.9,4.4,30.25,NW,308,8.1,8.1,60,0.00,CLR,,0.00,WeatherDisplay:10.37,2013-01-24 15:33:00,
2013-01-24 10:38:00,16.3,4.5,30.25,WNW,288,11.5,11.5,59,0.00,CLR,,0.00,WeatherDisplay:10.37,2013-01-24 15:38:00,
2013-01-24 10:43:00,16.2,4.4,30.25,WSW,257,9.2,9.2,59,0.00,CLR,,0.00,WeatherDisplay:10.37,2013-01-24 15:43:00,
2013-01-24 10:48:00,16.5,4.7,30.25,NW,316,11.5,11.5,59,0.00,CLR,,0.00,WeatherDisplay:10.37,2013-01-24 15:48:00,
2013-01-24 10:53:00,16.7,4.8,30.25,North,355,4.6,4.6,59,0.00,CLR,,0.00,WeatherDisplay:10.37,2013-01-24 15:53:00,
2013-01-24 10:58:00,16.9,4.3,30.25,West,265,11.5,11.5,57,0.00,CLR,,0.00,WeatherDisplay:10.37,2013-01-24 15:58:00,
2013-01-24 11:03:00,16.9,4.3,30.24,NW,306,10.4,10.4,57,0.00,CLR,,0.00,WeatherDisplay:10.37,2013-01-24 16:03:00,
2013-01-24 11:08:00,16.9,3.9,30.24,WNW,297,15.0,15.0,56,0.00,CLR,,0.00,WeatherDisplay:10.37,2013-01-24 16:08:00,
2013-01-24 11:13:00,17.1,3.7,30.24,NNW,344,12.7,12.7,55,0.00,CLR,,0.00,WeatherDisplay:10.37,2013-01-24 16:13:00,
2013-01-24 11:18:00,17.3,3.5,30.23,NNW,327,12.0,12.0,54,0.00,CLR,,0.00,WeatherDisplay:10.37,2013-01-24 16:18:00,
2013-01-24 11:23:00,17.3,3.1,30.24,WNW,290,10.4,10.4,53,0.00,CLR,,0.00,WeatherDisplay:10.37,2013-01-24 16:23:00,
2013-01-24 11:28:00,17.6,4.2,30.24,NW,306,9.2,9.2,55,0.00,CLR,,0.00,WeatherDisplay:10.37,2013-01-24 16:28:00,
2013-01-24 11:33:00,18.0,4.1,30.24,NW,309,6.9,7.4,54,0.00,CLR,,0.00,WeatherDisplay:10.37,2013-01-24 16:33:00,
2013-01-24 11:38:00,18.3,3.6,30.23,NW,309,13.8,13.8,52,0.00,CLR,,0.00,WeatherDisplay:10.37,2013-01-24 16:38:00,
2013-01-24 11:43:00,18.5,4.2,30.23,NW,323,8.1,8.1,53,0.00,CLR,,0.00,WeatherDisplay:10.37,2013-01-24 16:43:00,
2013-01-24 11:48:00,19.2,4.4,30.23,WNW,301,10.4,10.4,52,0.00,CLR,,0.00,WeatherDisplay:10.37,2013-01-24 16:48:00,
2013-01-24 11:53:00,19.1,3.9,30.23,WNW,286,19.6,19.6,51,0.00,CLR,,0.00,WeatherDisplay:10.37,2013-01-24 16:53:00,
2013-01-24 11:58:00,19.1,4.3,30.23,NNW,327,11.5,11.5,52,0.00,CLR,,0.00,WeatherDisplay:10.37,2013-01-24 16:58:00,
2013-01-24 12:03:00,19.2,4.4,30.23,West,276,8.1,8.1,52,0.00,CLR,,0.00,WeatherDisplay:10.37,2013-01-24 17:03:00,
2013-01-24 12:08:00,19.3,4.1,30.23,WNW,284,16.1,16.1,51,0.00,CLR,,0.00,WeatherDisplay:10.37,2013-01-24 17:08:00,
2013-01-24 12:13:00,19.4,4.6,30.23,NNW,329,16.1,16.1,52,0.00,CLR,,0.00,WeatherDisplay:10.37,2013-01-24 17:13:00,
2013-01-24 12:18:00,19.6,4.8,30.22,NW,309,11.5,11.5,52,0.00,CLR,,0.00,WeatherDisplay:10.37,2013-01-24 17:18:00,
2013-01-24 12:23:00,20.0,5.2,30.23,North,360,11.0,11.0,52,0.00,CLR,,0.00,WeatherDisplay:10.37,2013-01-24 17:23:00,
2013-01-24 12:28:00,20.1,5.3,30.22,WNW,296,11.5,11.5,52,0.00,CLR,,0.00,WeatherDisplay:10.37,2013-01-24 17:28:00,
2013-01-24 12:33:00,20.6,5.3,30.22,West,281,16.1,16.1,51,0.00,CLR,,0.00,WeatherDisplay:10.37,2013-01-24 17:33:00,
2013-01-24 12:38:00,20.9,5.2,30.22,NW,321,18.0,18.0,50,0.00,CLR,,0.00,WeatherDisplay:10.37,2013-01-24 17:38:00,
2013-01-24 12:43:00,20.8,4.2,30.22,WNW,302,13.8,13.8,48,0.00,CLR,,0.00,WeatherDisplay:10.37,2013-01-24 17:43:00,
2013-01-24 12:48:00,21.0,4.8,30.22,NW,319,8.1,8.1,49,0.00,CLR,,0.00,WeatherDisplay:10.37,2013-01-24 17:48:00,
2013-01-24 12:53:00,21.0,3.9,30.22,WNW,298,13.8,13.8,47,0.00,CLR,,0.00,WeatherDisplay:10.37,2013-01-24 17:53:00,
2013-01-24 12:58:00,21.1,4.4,30.22,NW,320,12.7,12.7,48,0.00,CLR,,0.00,WeatherDisplay:10.37,2013-01-24 17:58:00,
2013-01-24 13:03:00,21.1,4.9,30.22,NNW,338,12.7,12.7,49,0.00,FEW,,0.00,WeatherDisplay:10.37,2013-01-24 18:03:00,
2013-01-24 13:08:00,21.1,4.9,30.22,West,279,12.7,12.7,49,0.00,FEW,,0.00,WeatherDisplay:10.37,2013-01-24 18:08:00,
2013-01-24 13:13:00,21.1,4.4,30.22,WNW,291,9.2,9.2,48,0.00,FEW,,0.00,WeatherDisplay:10.37,2013-01-24 18:13:00,
2013-01-24 13:18:00,21.5,4.8,30.22,NNW,338,11.5,11.5,48,0.00,FEW,,0.00,WeatherDisplay:10.37,2013-01-24 18:18:00,
2013-01-24 13:23:00,21.9,4.3,30.22,NNW,343,11.0,11.0,46,0.00,FEW,,0.00,WeatherDisplay:10.37,2013-01-24 18:23:00,
2013-01-24 13:28:00,22.1,4.4,30.22,NNW,346,12.7,12.7,46,0.00,FEW,,0.00,WeatherDisplay:10.37,2013-01-24 18:28:00,
2013-01-24 13:33:00,22.0,3.9,30.23,NNW,348,13.8,13.8,45,0.00,FEW,,0.00,WeatherDisplay:10.37,2013-01-24 18:33:00,
2013-01-24 13:38:00,22.3,4.6,30.22,North,360,11.0,11.0,46,0.00,FEW,,0.00,WeatherDisplay:10.37,2013-01-24 18:38:00,
2013-01-24 13:44:00,22.2,4.1,30.23,NNE,17,13.8,13.8,45,0.00,FEW,,0.00,WeatherDisplay:10.37,2013-01-24 18:44:00,
2013-01-24 13:49:00,22.2,4.1,30.23,NNW,335,9.2,9.2,45,0.00,FEW,,0.00,WeatherDisplay:10.37,2013-01-24 18:49:00,
2013-01-24 13:54:00,22.1,4.0,30.23,ESE,117,13.8,13.8,45,0.00,FEW,,0.00,WeatherDisplay:10.37,2013-01-24 18:54:00,
2013-01-24 13:59:00,21.5,2.9,30.23,West,277,13.8,13.8,44,0.00,FEW,,0.00,WeatherDisplay:10.37,2013-01-24 18:59:00,
2013-01-24 14:04:00,21.4,3.3,30.23,NW,314,23.0,23.0,45,0.00,CLR,,0.00,WeatherDisplay:10.37,2013-01-24 19:04:00,
2013-01-24 14:09:00,21.6,3.5,30.23,NW,308,13.0,13.0,45,0.00,CLR,,0.00,WeatherDisplay:10.37,2013-01-24 19:09:00,
2013-01-24 14:14:00,21.7,3.1,30.23,NNW,331,14.0,14.0,44,0.00,CLR,,0.00,WeatherDisplay:10.37,2013-01-24 19:14:00,
2013-01-24 14:19:00,21.8,3.7,30.24,WNW,286,17.3,17.3,45,0.00,CLR,,0.00,WeatherDisplay:10.37,2013-01-24 19:19:00,
2013-01-24 14:24:00,22.0,3.9,30.24,WNW,297,15.0,15.0,45,0.00,CLR,,0.00,WeatherDisplay:10.37,2013-01-24 19:24:00,
2013-01-24 14:29:00,21.7,3.6,30.25,NNE,28,23.0,23.0,45,0.00,CLR,,0.00,WeatherDisplay:10.37,2013-01-24 19:29:00,
2013-01-24 14:34:00,21.2,3.1,30.25,WNW,303,18.4,18.4,45,0.00,CLR,,0.00,WeatherDisplay:10.37,2013-01-24 19:34:00,
2013-01-24 14:39:00,20.8,2.8,30.24,NNW,342,18.4,18.4,45,0.00,CLR,,0.00,WeatherDisplay:10.37,2013-01-24 19:39:00,
2013-01-24 14:44:00,20.8,2.8,30.25,NW,325,11.5,11.5,45,0.00,CLR,,0.00,WeatherDisplay:10.37,2013-01-24 19:44:00,
2013-01-24 14:49:00,20.7,2.7,30.25,NW,322,11.5,11.5,45,0.00,CLR,,0.00,WeatherDisplay:10.37,2013-01-24 19:49:00,
2013-01-24 14:54:00,20.5,2.5,30.25,NW,311,23.0,23.0,45,0.00,CLR,,0.00,WeatherDisplay:10.37,2013-01-24 19:54:00,
2013-01-24 14:59:00,20.6,3.1,30.26,NNE,23,6.9,6.9,46,0.00,CLR,,0.00,WeatherDisplay:10.37,2013-01-24 19:59:00,
2013-01-24 15:04:00,20.8,3.2,30.26,North,360,10.4,10.4,46,0.00,CLR,,0.00,WeatherDisplay:10.37,2013-01-24 20:04:00,
2013-01-24 15:09:00,20.9,3.3,30.26,North,355,11.5,11.5,46,0.00,CLR,,0.00,WeatherDisplay:10.37,2013-01-24 20:09:00,
2013-01-24 15:14:00,20.8,2.8,30.26,NNE,13,16.1,16.1,45,0.00,CLR,,0.00,WeatherDisplay:10.37,2013-01-24 20:14:00,
2013-01-24 15:19:00,20.7,3.2,30.26,WNW,300,12.7,12.7,46,0.00,CLR,,0.00,WeatherDisplay:10.37,2013-01-24 20:19:00,
2013-01-24 15:24:00,20.8,3.7,30.26,NNW,340,11.5,11.5,47,0.00,CLR,,0.00,WeatherDisplay:10.37,2013-01-24 20:24:00,
2013-01-24 15:29:00,20.7,3.2,30.26,NNE,28,11.5,11.5,46,0.00,CLR,,0.00,WeatherDisplay:10.37,2013-01-24 20:29:00,
2013-01-24 15:34:00,20.6,3.5,30.26,NNW,331,11.5,11.5,47,0.00,CLR,,0.00,WeatherDisplay:10.37,2013-01-24 20:34:00,
2013-01-24 15:39:00,20.5,3.4,30.26,NW,315,11.5,11.5,47,0.00,CLR,,0.00,WeatherDisplay:10.37,2013-01-24 20:39:00,
2013-01-24 15:44:00,20.5,3.4,30.27,WNW,294,11.5,11.5,47,0.00,CLR,,0.00,WeatherDisplay:10.37,2013-01-24 20:44:00,
2013-01-24 15:49:00,20.4,3.3,30.27,NW,310,19.6,19.6,47,0.00,CLR,,0.00,WeatherDisplay:10.37,2013-01-24 20:49:00,
2013-01-24 15:54:00,20.3,3.2,30.27,NW,306,13.0,13.0,47,0.00,CLR,,0.00,WeatherDisplay:10.37,2013-01-24 20:54:00,
2013-01-24 15:59:00,20.2,3.6,30.27,NE,36,11.5,11.5,48,0.00,CLR,,0.00,WeatherDisplay:10.37,2013-01-24 20:59:00,
2013-01-24 16:04:00,20.1,3.5,30.27,NNE,13,8.1,8.1,48,0.00,CLR,,0.00,WeatherDisplay:10.37,2013-01-24 21:04:00,
2013-01-24 16:09:00,20.0,3.0,30.28,NNW,342,8.1,8.1,47,0.00,CLR,,0.00,WeatherDisplay:10.37,2013-01-24 21:09:00,
2013-01-24 16:14:00,20.0,3.4,30.27,WNW,303,4.6,4.6,48,0.00,CLR,,0.00,WeatherDisplay:10.37,2013-01-24 21:14:00,
2013-01-24 16:19:00,19.9,3.3,30.28,WNW,288,4.6,4.6,48,0.00,CLR,,0.00,WeatherDisplay:10.37,2013-01-24 21:19:00,
2013-01-24 16:24:00,19.8,2.8,30.28,NW,326,27.6,27.6,47,0.00,CLR,,0.00,WeatherDisplay:10.37,2013-01-24 21:24:00,
2013-01-24 16:29:00,19.7,2.7,30.28,North,5,11.5,11.5,47,0.00,CLR,,0.00,WeatherDisplay:10.37,2013-01-24 21:29:00,
2013-01-24 16:34:00,19.7,2.7,30.28,North,355,10.4,10.4,47,0.00,CLR,,0.00,WeatherDisplay:10.37,2013-01-24 21:34:00,
2013-01-24 16:39:00,19.7,2.7,30.28,North,5,8.1,8.1,47,0.00,CLR,,0.00,WeatherDisplay:10.37,2013-01-24 21:39:00,
2013-01-24 16:44:00,19.7,3.2,30.28,NW,305,12.0,12.0,48,0.00,CLR,,0.00,WeatherDisplay:10.37,2013-01-24 21:44:00,
2013-01-24 16:49:00,19.5,3.4,30.28,North,355,11.5,11.5,49,0.00,CLR,,0.00,WeatherDisplay:10.37,2013-01-24 21:49:00,
2013-01-24 16:54:00,19.5,3.4,30.28,NW,325,16.0,16.0,49,0.00,CLR,,0.00,WeatherDisplay:10.37,2013-01-24 21:54:00,
2013-01-24 16:59:00,19.4,3.8,30.29,WNW,295,11.5,11.5,50,0.00,CLR,,0.00,WeatherDisplay:10.37,2013-01-24 21:59:00,
2013-01-24 17:04:00,19.3,3.2,30.29,WNW,288,18.4,18.4,49,0.00,CLR,,0.00,WeatherDisplay:10.37,2013-01-24 22:04:00,
2013-01-24 17:09:00,19.3,3.2,30.29,NW,311,13.8,13.8,49,0.00,CLR,,0.00,WeatherDisplay:10.37,2013-01-24 22:09:00,
2013-01-24 17:14:00,19.2,3.1,30.30,West,268,13.8,13.8,49,0.00,CLR,,0.00,WeatherDisplay:10.37,2013-01-24 22:14:00,
2013-01-24 17:19:00,19.1,3.0,30.30,NW,309,13.8,13.8,49,0.00,CLR,,0.00,WeatherDisplay:10.37,2013-01-24 22:19:00,
2013-01-24 17:24:00,19.1,3.0,30.30,NW,321,2.3,2.3,49,0.00,CLR,,0.00,WeatherDisplay:10.37,2013-01-24 22:24:00,
2013-01-24 17:29:00,19.0,3.0,30.31,West,271,3.5,3.5,49,0.00,CLR,,0.00,WeatherDisplay:10.37,2013-01-24 22:29:00,
2013-01-24 17:34:00,18.8,2.8,30.31,NW,313,10.4,10.4,49,0.00,CLR,,0.00,WeatherDisplay:10.37,2013-01-24 22:34:00,
2013-01-24 17:39:00,18.8,3.2,30.32,West,269,6.0,6.0,50,0.00,CLR,,0.00,WeatherDisplay:10.37,2013-01-24 22:39:00,
2013-01-24 17:44:00,18.7,3.1,30.32,WSW,251,4.6,4.6,50,0.00,CLR,,0.00,WeatherDisplay:10.37,2013-01-24 22:44:00,
2013-01-24 17:49:00,18.6,3.4,30.33,West,275,7.0,7.0,51,0.00,CLR,,0.00,WeatherDisplay:10.37,2013-01-24 22:49:00,
2013-01-24 17:54:00,18.6,3.0,30.33,West,281,12.7,12.7,50,0.00,CLR,,0.00,WeatherDisplay:10.37,2013-01-24 22:54:00,
2013-01-24 17:59:00,18.6,2.6,30.33,NW,313,19.6,19.6,49,0.00,CLR,,0.00,WeatherDisplay:10.37,2013-01-24 22:59:00,
2013-01-24 18:04:00,18.6,2.6,30.33,NW,320,13.8,13.8,49,0.00,CLR,,0.00,WeatherDisplay:10.37,2013-01-24 23:04:00,
2013-01-24 18:09:00,18.5,2.5,30.33,West,264,12.7,12.7,49,0.00,CLR,,0.00,WeatherDisplay:10.37,2013-01-24 23:09:00,
2013-01-24 18:14:00,18.4,2.4,30.34,WNW,292,12.7,12.7,49,0.00,CLR,,0.00,WeatherDisplay:10.37,2013-01-24 23:14:00,
2013-01-24 18:19:00,18.2,2.6,30.34,SW,226,9.2,9.2,50,0.00,CLR,,0.00,WeatherDisplay:10.37,2013-01-24 23:19:00,
2013-01-24 18:24:00,18.1,2.6,30.34,NW,322,20.0,20.0,50,0.00,CLR,,0.00,WeatherDisplay:10.37,2013-01-24 23:24:00,
2013-01-24 18:29:00,18.0,2.5,30.34,North,355,10.4,10.4,50,0.00,CLR,,0.00,WeatherDisplay:10.37,2013-01-24 23:29:00,
2013-01-24 18:34:00,17.9,2.8,30.34,NW,319,4.6,4.6,51,0.00,CLR,,0.00,WeatherDisplay:10.37,2013-01-24 23:34:00,
2013-01-24 18:39:00,17.8,3.1,30.34,WNW,302,5.8,5.8,52,0.00,CLR,,0.00,WeatherDisplay:10.37,2013-01-24 23:39:00,
2013-01-24 18:44:00,17.7,3.0,30.34,NE,36,11.5,11.5,52,0.00,CLR,,0.00,WeatherDisplay:10.37,2013-01-24 23:44:00,
2013-01-24 18:49:00,17.6,3.3,30.34,NE,46,9.0,9.0,53,0.00,CLR,,0.00,WeatherDisplay:10.37,2013-01-24 23:49:00,
2013-01-24 18:54:00,17.5,3.3,30.35,NW,324,11.5,11.5,53,0.00,CLR,,0.00,WeatherDisplay:10.37,2013-01-24 23:54:00,
2013-01-24 18:59:00,17.3,3.1,30.35,NW,306,11.5,11.5,53,0.00,CLR,,0.00,WeatherDisplay:10.37,2013-01-24 23:59:00,
2013-01-24 19:04:00,17.2,3.0,30.36,NW,304,15.0,15.0,53,0.00,CLR,,0.00,WeatherDisplay:10.37,2013-01-25 00:04:00,
2013-01-24 19:09:00,17.1,3.3,30.36,North,360,11.0,11.0,54,0.00,CLR,,0.00,WeatherDisplay:10.37,2013-01-25 00:09:00,
2013-01-24 19:14:00,17.0,2.8,30.36,WNW,289,11.5,11.5,53,0.00,CLR,,0.00,WeatherDisplay:10.37,2013-01-25 00:14:00,
2013-01-24 19:19:00,16.8,2.6,30.37,WNW,299,10.4,10.4,53,0.00,CLR,,0.00,WeatherDisplay:10.37,2013-01-25 00:19:00,
2013-01-24 19:24:00,16.6,2.4,30.37,West,281,9.2,9.2,53,0.00,CLR,,0.00,WeatherDisplay:10.37,2013-01-25 00:24:00,
2013-01-24 19:29:00,16.5,2.7,30.37,NW,323,8.1,8.1,54,0.00,CLR,,0.00,WeatherDisplay:10.37,2013-01-25 00:29:00,
2013-01-24 19:34:00,16.3,2.5,30.36,WNW,288,9.2,9.2,54,0.00,CLR,,0.00,WeatherDisplay:10.37,2013-01-25 00:34:00,
2013-01-24 19:39:00,16.1,2.7,30.36,North,360,8.1,8.1,55,0.00,CLR,,0.00,WeatherDisplay:10.37,2013-01-25 00:39:00,
2013-01-24 19:44:00,16.0,2.7,30.36,NE,44,9.0,9.0,55,0.00,CLR,,0.00,WeatherDisplay:10.37,2013-01-25 00:44:00,
2013-01-24 19:49:00,15.8,2.9,30.36,West,271,9.2,9.2,56,0.00,CLR,,0.00,WeatherDisplay:10.37,2013-01-25 00:49:00,
2013-01-24 19:54:00,15.7,2.8,30.36,NNE,32,10.4,10.4,56,0.00,CLR,,0.00,WeatherDisplay:10.37,2013-01-25 00:54:00,
2013-01-24 19:59:00,15.7,2.8,30.36,West,278,9.0,9.0,56,0.00,CLR,,0.00,WeatherDisplay:10.37,2013-01-25 00:59:00,
2013-01-24 20:04:00,15.6,2.7,30.36,NW,322,11.5,11.5,56,0.00,CLR,,0.00,WeatherDisplay:10.37,2013-01-25 01:04:00,
2013-01-24 20:09:00,15.5,3.0,30.36,NNE,16,15.0,15.0,57,0.00,CLR,,0.00,WeatherDisplay:10.37,2013-01-25 01:09:00,
2013-01-24 20:14:00,15.5,3.0,30.36,NNE,26,13.8,13.8,57,0.00,CLR,,0.00,WeatherDisplay:10.37,2013-01-25 01:14:00,
2013-01-24 20:19:00,15.4,2.9,30.36,North,360,12.0,12.0,57,0.00,CLR,,0.00,WeatherDisplay:10.37,2013-01-25 01:19:00,
2013-01-24 20:24:00,15.4,3.2,30.35,WNW,292,19.6,19.6,58,0.00,CLR,,0.00,WeatherDisplay:10.37,2013-01-25 01:24:00,
2013-01-24 20:29:00,15.3,3.1,30.35,NW,325,9.2,9.2,58,0.00,CLR,,0.00,WeatherDisplay:10.37,2013-01-25 01:29:00,
2013-01-24 20:34:00,15.3,3.1,30.35,WNW,302,5.0,5.0,58,0.00,CLR,,0.00,WeatherDisplay:10.37,2013-01-25 01:34:00,
2013-01-24 20:39:00,15.1,3.3,30.35,ENE,57,10.0,10.0,59,0.00,CLR,,0.00,WeatherDisplay:10.37,2013-01-25 01:39:00,
2013-01-24 20:44:00,15.1,3.3,30.35,NW,319,8.1,8.1,59,0.00,CLR,,0.00,WeatherDisplay:10.37,2013-01-25 01:44:00,
2013-01-24 20:49:00,15.1,3.3,30.36,NNW,330,9.0,9.0,59,0.00,CLR,,0.00,WeatherDisplay:10.37,2013-01-25 01:49:00,
2013-01-24 20:54:00,15.1,3.3,30.36,NW,304,9.2,9.2,59,0.00,CLR,,0.00,WeatherDisplay:10.37,2013-01-25 01:54:00,
2013-01-24 20:59:00,15.1,3.3,30.36,NNW,338,11.5,11.5,59,0.00,CLR,,0.00,WeatherDisplay:10.37,2013-01-25 01:59:00,
2013-01-24 21:04:00,15.1,3.7,30.35,NNE,23,11.5,11.5,60,0.00,CLR,,0.00,WeatherDisplay:10.37,2013-01-25 02:04:00,
2013-01-24 21:09:00,15.0,3.6,30.35,WNW,298,13.8,13.8,60,0.00,CLR,,0.00,WeatherDisplay:10.37,2013-01-25 02:09:00,
2013-01-24 21:14:00,15.0,3.6,30.35,NW,304,12.0,12.0,60,0.00,CLR,,0.00,WeatherDisplay:10.37,2013-01-25 02:14:00,
2013-01-24 21:19:00,15.0,3.6,30.36,ENE,66,8.1,8.1,60,0.00,CLR,,0.00,WeatherDisplay:10.37,2013-01-25 02:19:00,
2013-01-24 21:24:00,15.0,3.6,30.36,NNW,340,6.9,6.9,60,0.00,CLR,,0.00,WeatherDisplay:10.37,2013-01-25 02:24:00,
2013-01-24 21:29:00,15.0,3.6,30.36,WNW,301,12.7,12.7,60,0.00,CLR,,0.00,WeatherDisplay:10.37,2013-01-25 02:29:00,
2013-01-24 21:34:00,15.0,3.2,30.36,NNW,348,13.0,13.0,59,0.00,CLR,,0.00,WeatherDisplay:10.37,2013-01-25 02:34:00,
2013-01-24 21:39:00,14.9,3.1,30.36,WNW,297,11.0,11.0,59,0.00,CLR,,0.00,WeatherDisplay:10.37,2013-01-25 02:39:00,
2013-01-24 21:44:00,14.8,3.4,30.36,NE,46,6.0,6.0,60,0.00,CLR,,0.00,WeatherDisplay:10.37,2013-01-25 02:44:00,
2013-01-24 21:49:00,14.7,3.3,30.36,WSW,251,11.0,11.0,60,0.00,CLR,,0.00,WeatherDisplay:10.37,2013-01-25 02:49:00,
2013-01-24 21:54:00,14.6,3.2,30.37,NNW,344,8.1,8.1,60,0.00,CLR,,0.00,WeatherDisplay:10.37,2013-01-25 02:54:00,
2013-01-24 21:59:00,14.5,3.5,30.36,NW,308,10.0,10.0,61,0.00,CLR,,0.00,WeatherDisplay:10.37,2013-01-25 02:59:00,
2013-01-24 22:04:00,14.4,3.4,30.36,North,360,13.8,13.8,61,0.00,CLR,,0.00,WeatherDisplay:10.37,2013-01-25 03:04:00,
2013-01-24 22:09:00,14.4,3.4,30.36,WNW,286,10.4,10.4,61,0.00,CLR,,0.00,WeatherDisplay:10.37,2013-01-25 03:09:00,
2013-01-24 22:14:00,14.3,3.3,30.36,NW,318,4.6,4.6,61,0.00,CLR,,0.00,WeatherDisplay:10.37,2013-01-25 03:14:00,
2013-01-24 22:19:00,14.2,3.2,30.37,WNW,301,6.9,6.9,61,0.00,CLR,,0.00,WeatherDisplay:10.37,2013-01-25 03:19:00,
2013-01-24 22:24:00,14.1,3.1,30.36,NNW,336,12.7,12.7,61,0.00,CLR,,0.00,WeatherDisplay:10.37,2013-01-25 03:24:00,
2013-01-24 22:29:00,14.2,3.2,30.36,North,355,10.4,10.4,61,0.00,CLR,,0.00,WeatherDisplay:10.37,2013-01-25 03:29:00,
2013-01-24 22:34:00,14.2,3.2,30.36,WNW,299,11.0,11.0,61,0.00,CLR,,0.00,WeatherDisplay:10.37,2013-01-25 03:34:00,
2013-01-24 22:39:00,14.2,3.6,30.36,West,274,23.0,23.0,62,0.00,CLR,,0.00,WeatherDisplay:10.37,2013-01-25 03:39:00,
2013-01-24 22:44:00,14.1,3.8,30.37,WNW,287,6.9,6.9,63,0.00,CLR,,0.00,WeatherDisplay:10.37,2013-01-25 03:44:00,
2013-01-24 22:49:00,14.1,3.8,30.37,WNW,283,7.0,7.0,63,0.00,CLR,,0.00,WeatherDisplay:10.37,2013-01-25 03:49:00,
2013-01-24 22:54:00,14.1,3.5,30.37,WNW,286,11.5,11.5,62,0.00,CLR,,0.00,WeatherDisplay:10.37,2013-01-25 03:54:00,
2013-01-24 22:59:00,14.0,3.4,30.37,West,278,13.8,13.8,62,0.00,CLR,,0.00,WeatherDisplay:10.37,2013-01-25 03:59:00,
2013-01-24 23:04:00,14.0,3.0,30.37,WNW,282,13.8,13.8,61,0.00,CLR,,0.00,WeatherDisplay:10.37,2013-01-25 04:04:00,
2013-01-24 23:09:00,14.0,3.4,30.37,WNW,292,9.2,9.2,62,0.00,CLR,,0.00,WeatherDisplay:10.37,2013-01-25 04:09:00,
2013-01-24 23:14:00,14.0,3.0,30.36,NW,307,5.8,5.8,61,0.00,CLR,,0.00,WeatherDisplay:10.37,2013-01-25 04:14:00,
2013-01-24 23:19:00,13.9,2.9,30.37,WNW,291,15.0,15.0,61,0.00,CLR,,0.00,WeatherDisplay:10.37,2013-01-25 04:19:00,
2013-01-24 23:24:00,13.9,2.9,30.37,NNW,330,9.2,9.2,61,0.00,CLR,,0.00,WeatherDisplay:10.37,2013-01-25 04:24:00,
2013-01-24 23:29:00,13.8,2.8,30.37,West,280,11.0,11.0,61,0.00,CLR,,0.00,WeatherDisplay:10.37,2013-01-25 04:29:00,
2013-01-24 23:34:00,13.7,3.1,30.37,NNW,342,10.4,10.4,62,0.00,CLR,,0.00,WeatherDisplay:10.37,2013-01-25 04:34:00,
2013-01-24 23:39:00,13.6,3.0,30.38,NNW,340,10.4,10.4,62,0.00,CLR,,0.00,WeatherDisplay:10.37,2013-01-25 04:39:00,
2013-01-24 23:44:00,13.7,3.1,30.39,NNW,333,8.0,8.0,62,0.00,CLR,,0.00,WeatherDisplay:10.37,2013-01-25 04:44:00,
2013-01-24 23:49:00,13.6,3.0,30.39,NW,323,9.2,9.2,62,0.00,CLR,,0.00,WeatherDisplay:10.37,2013-01-25 04:49:00,
2013-01-24 23:54:00,13.5,2.9,30.39,NNW,331,10.4,10.4,62,0.00,CLR,,0.00,WeatherDisplay:10.37,2013-01-25 04:54:00,
2013-01-24 23:59:00,13.5,2.9,30.39,North,351,2.3,2.3,62,0.00,CLR,,0.00,WeatherDisplay:10.37,2013-01-25 04:59:00,